Time;durP1;ratioP1;P1;durP2;ratioP2;P2;SDS_P1;SDS_P2;PMS_P1;PMS_P2;Temp;Humidity;BMP_temperature;BMP_pressure;BME280_temperature;BME280_humidity;BME280_pressure;Samples;Min_cycle;Max_cycle;Signal;HPM_P1;HPM_P2
2023/07/04 00:00:03;;;;;;;;;;;11.00;99.90;;;;;;5073007;28;20361;-77
2023/07/04 00:02:28;;;;;;;;;;;10.90;99.90;;;;;;5089762;28;19931;-78
2023/07/04 00:04:54;;;;;;;;;;;10.90;99.90;;;;;;5106679;28;19916;-78
2023/07/04 00:07:21;;;;;;;;;;;10.90;99.90;;;;;;5107103;28;19959;-79
2023/07/04 00:09:47;;;;;;;;;;;10.90;99.90;;;;;;5090034;28;19920;-76
2023/07/04 00:12:12;;;;;;;;;;;10.90;99.90;;;;;;5106883;28;20513;-78
2023/07/04 00:14:38;;;;;;;;;;;10.80;99.90;;;;;;5089891;28;19919;-76
2023/07/04 00:17:05;;;;;;;;;;;10.80;99.90;;;;;;5071914;28;19927;-77
2023/07/04 00:19:32;;;;;;;;;;;10.70;99.90;;;;;;5089936;28;19927;-77
2023/07/04 00:21:59;;;;;;;;;;;10.70;99.90;;;;;;5089854;28;19978;-77
2023/07/04 00:24:27;;;;;;;;;;;10.90;99.90;;;;;;5091713;28;19916;-80
2023/07/04 00:26:56;;;;;;;;;;;10.70;99.90;;;;;;5073090;28;19920;-77
2023/07/04 00:29:22;;;;;;;;;;;10.70;99.90;;;;;;5089830;28;19920;-77
2023/07/04 00:31:47;;;;;;;;;;;10.70;99.90;;;;;;5089359;28;20396;-77
2023/07/04 00:34:14;;;;;;;;;;;10.70;99.90;;;;;;5073156;28;19927;-78
2023/07/04 00:36:40;;;;;;;;;;;10.60;99.90;;;;;;5089700;28;19920;-77
2023/07/04 00:39:05;;;;;;;;;;;10.60;99.90;;;;;;5089860;28;20332;-77
2023/07/04 00:41:31;;;;;;;;;;;10.90;99.90;;;;;;5055956;28;19916;-76
2023/07/04 00:44:08;;;;;;;;;;;10.80;99.90;;;;;;5088761;28;20014;-78
2023/07/04 00:47:15;;;;;;;;;;;10.60;99.90;;;;;;5091119;28;19920;-78
2023/07/04 00:49:57;;;;;;;;;;;10.60;99.90;;;;;;5086058;28;19920;-77
2023/07/04 00:52:25;;;;;;;;;;;11.10;99.90;;;;;;5070040;28;20289;-78
2023/07/04 00:54:52;;;;;;;;;;;10.60;99.90;;;;;;5070701;28;19927;-76
2023/07/04 00:57:22;;;;;;;;;;;10.60;99.90;;;;;;5069393;28;19969;-76
2023/07/04 00:59:51;;;;;;;;;;;10.50;99.90;;;;;;5068913;28;20440;-76
2023/07/04 01:02:18;;;;;;;;;;;10.50;99.90;;;;;;5069213;28;19927;-75
2023/07/04 01:04:45;;;;;;;;;;;10.50;99.90;;;;;;5071586;28;19927;-76
2023/07/04 01:07:10;;;;;;;;;;;10.60;99.90;;;;;;5073264;28;20439;-77
2023/07/04 01:09:38;;;;;;;;;;;10.70;99.90;;;;;;5106573;28;19920;-76
2023/07/04 01:12:04;;;;;;;;;;;10.50;99.90;;;;;;5089314;28;19963;-76
2023/07/04 01:14:30;;;;;;;;;;;10.50;99.90;;;;;;5072896;28;19924;-77
2023/07/04 01:16:56;;;;;;;;;;;10.60;99.90;;;;;;5084421;28;19920;-75
2023/07/04 01:19:27;;;;;;;;;;;10.70;99.90;;;;;;5092775;28;19920;-76
2023/07/04 01:22:00;;;;;;;;;;;10.60;99.90;;;;;;5075615;28;19967;-76
2023/07/04 01:24:32;;;;;;;;;;;10.70;99.90;;;;;;5093989;28;20195;-78
2023/07/04 01:26:59;;;;;;;;;;;10.80;99.90;;;;;;5075876;28;19916;-76
2023/07/04 01:29:24;;;;;;;;;;;10.80;99.90;;;;;;5076160;28;19926;-77
2023/07/04 01:31:50;;;;;;;;;;;10.70;99.90;;;;;;5092515;28;19935;-78
2023/07/04 01:34:20;;;;;;;;;;;10.80;99.90;;;;;;5092715;28;19928;-78
2023/07/04 01:36:49;;;;;;;;;;;10.90;99.90;;;;;;5092041;28;19920;-75
2023/07/04 01:39:15;;;;;;;;;;;10.90;99.90;;;;;;5092655;28;19926;-76
2023/07/04 01:41:45;;;;;;;;;;;10.80;99.90;;;;;;5092378;28;20291;-75
2023/07/04 01:44:11;;;;;;;;;;;11.00;99.90;;;;;;5092342;28;20377;-77
2023/07/04 01:46:36;;;;;;;;;;;10.90;99.90;;;;;;5092228;28;19978;-77
2023/07/04 01:49:02;;;;;;;;;;;10.80;99.90;;;;;;5091810;28;19920;-75
2023/07/04 01:51:47;;;;;;;;;;;10.80;99.90;;;;;;5092229;28;19969;-78
2023/07/04 01:54:17;;;;;;;;;;;10.60;99.90;;;;;;5075887;28;19927;-76
2023/07/04 01:56:44;;;;;;;;;;;10.80;99.90;;;;;;5092382;28;19916;-78
2023/07/04 01:59:10;;;;;;;;;;;10.70;99.90;;;;;;5075082;28;19927;-76
2023/07/04 02:01:41;;;;;;;;;;;10.40;99.90;;;;;;5091955;28;20015;-76
2023/07/04 02:04:07;;;;;;;;;;;10.60;99.90;;;;;;5091694;28;20026;-77
2023/07/04 02:06:33;;;;;;;;;;;10.60;99.90;;;;;;5075659;28;19919;-77
2023/07/04 02:09:00;;;;;;;;;;;10.60;99.90;;;;;;5074492;28;20272;-76
2023/07/04 02:11:27;;;;;;;;;;;10.50;99.90;;;;;;5058794;28;19919;-76
2023/07/04 02:13:52;;;;;;;;;;;10.50;99.90;;;;;;5091750;28;20279;-76
2023/07/04 02:16:21;;;;;;;;;;;10.60;99.90;;;;;;5093449;28;19930;-77
2023/07/04 02:18:47;;;;;;;;;;;10.50;99.90;;;;;;5091845;28;19916;-75
2023/07/04 02:21:12;;;;;;;;;;;10.50;99.90;;;;;;5074569;28;20280;-76
2023/07/04 02:23:38;;;;;;;;;;;10.40;99.90;;;;;;5091879;28;19927;-76
2023/07/04 02:26:03;;;;;;;;;;;10.60;99.90;;;;;;5074860;28;19920;-76
2023/07/04 02:28:29;;;;;;;;;;;10.50;99.90;;;;;;5091825;28;19982;-78
2023/07/04 02:30:55;;;;;;;;;;;10.50;99.90;;;;;;5074825;28;19919;-77
2023/07/04 02:33:21;;;;;;;;;;;10.80;99.90;;;;;;5074986;28;20061;-76
2023/07/04 02:35:47;;;;;;;;;;;10.50;99.90;;;;;;5091833;28;19969;-78
2023/07/04 02:38:12;;;;;;;;;;;10.40;99.90;;;;;;5091194;28;19916;-77
2023/07/04 02:40:42;;;;;;;;;;;10.50;99.90;;;;;;5090930;28;19916;-76
2023/07/04 02:43:08;;;;;;;;;;;10.50;99.90;;;;;;5091212;28;19931;-76
2023/07/04 02:45:33;;;;;;;;;;;10.50;99.90;;;;;;5091263;28;20273;-77
2023/07/04 02:47:59;;;;;;;;;;;10.60;99.90;;;;;;5091027;28;19950;-78
2023/07/04 02:50:24;;;;;;;;;;;10.60;99.90;;;;;;5090743;28;19931;-76
2023/07/04 02:52:50;;;;;;;;;;;10.70;99.90;;;;;;5091159;28;19946;-75
2023/07/04 02:55:17;;;;;;;;;;;10.90;99.90;;;;;;5090548;28;20426;-77
2023/07/04 02:57:43;;;;;;;;;;;10.60;99.90;;;;;;5074061;28;19965;-77
2023/07/04 03:00:09;;;;;;;;;;;10.80;99.90;;;;;;5074101;28;19928;-77
2023/07/04 03:02:35;;;;;;;;;;;10.70;99.90;;;;;;5090698;28;19926;-77
2023/07/04 03:05:00;;;;;;;;;;;10.90;99.90;;;;;;5090769;28;19924;-76
2023/07/04 03:07:26;;;;;;;;;;;10.90;99.90;;;;;;5091182;28;19934;-77
2023/07/04 03:09:51;;;;;;;;;;;11.00;99.90;;;;;;5090489;28;19946;-78
2023/07/04 03:12:17;;;;;;;;;;;11.10;99.90;;;;;;5073216;28;20063;-76
2023/07/04 03:14:42;;;;;;;;;;;11.10;99.90;;;;;;5089983;28;19920;-77
2023/07/04 03:17:09;;;;;;;;;;;11.00;99.90;;;;;;5089946;28;19922;-77
2023/07/04 03:19:35;;;;;;;;;;;11.20;99.90;;;;;;5091525;28;20489;-76
2023/07/04 03:22:00;;;;;;;;;;;11.20;99.90;;;;;;5090385;28;19924;-77
2023/07/04 03:24:26;;;;;;;;;;;11.30;99.90;;;;;;5090936;28;20288;-77
2023/07/04 03:26:52;;;;;;;;;;;11.20;99.90;;;;;;5090670;28;20015;-78
2023/07/04 03:29:18;;;;;;;;;;;11.10;99.90;;;;;;5090340;28;19920;-76
2023/07/04 03:31:43;;;;;;;;;;;11.10;99.90;;;;;;5091020;28;19916;-76
2023/07/04 03:34:10;;;;;;;;;;;11.20;99.90;;;;;;5090294;28;20007;-76
2023/07/04 03:36:41;;;;;;;;;;;11.10;99.90;;;;;;5075077;28;19927;-77
2023/07/04 03:39:08;;;;;;;;;;;11.20;99.90;;;;;;5089866;28;19920;-76
2023/07/04 03:41:34;;;;;;;;;;;11.30;99.90;;;;;;5073428;28;19916;-76
2023/07/04 03:44:00;;;;;;;;;;;11.40;99.90;;;;;;5090209;28;19961;-76
2023/07/04 03:46:26;;;;;;;;;;;11.40;99.90;;;;;;5091565;28;19916;-77
2023/07/04 03:48:51;;;;;;;;;;;11.50;99.90;;;;;;5091485;28;20053;-79
2023/07/04 03:51:23;;;;;;;;;;;11.70;99.90;;;;;;5090222;28;20019;-76
2023/07/04 03:53:49;;;;;;;;;;;11.60;99.90;;;;;;5073286;28;19969;-77
2023/07/04 03:56:15;;;;;;;;;;;11.70;99.90;;;;;;5089508;28;20357;-76
2023/07/04 03:58:41;;;;;;;;;;;11.70;99.90;;;;;;5089967;28;19927;-76
2023/07/04 04:01:07;;;;;;;;;;;11.70;99.90;;;;;;5089871;28;19916;-77
2023/07/04 04:03:37;;;;;;;;;;;11.70;99.90;;;;;;5090014;28;19985;-77
2023/07/04 04:06:04;;;;;;;;;;;11.40;99.90;;;;;;5089724;28;19920;-76
2023/07/04 04:08:30;;;;;;;;;;;11.70;99.90;;;;;;5090395;28;19922;-76
2023/07/04 04:10:55;;;;;;;;;;;11.60;99.90;;;;;;5073357;28;19916;-76
2023/07/04 04:13:21;;;;;;;;;;;11.60;99.90;;;;;;5089635;28;19919;-76
2023/07/04 04:15:46;;;;;;;;;;;11.50;99.90;;;;;;5089911;28;19977;-76
2023/07/04 04:18:13;;;;;;;;;;;11.60;99.90;;;;;;5089634;28;19920;-77
2023/07/04 04:20:38;;;;;;;;;;;11.60;99.90;;;;;;5089416;28;19943;-76
2023/07/04 04:23:04;;;;;;;;;;;11.70;99.90;;;;;;5088897;28;19967;-75
2023/07/04 04:25:38;;;;;;;;;;;11.80;99.90;;;;;;5089765;28;19924;-77
2023/07/04 04:28:07;;;;;;;;;;;11.70;99.90;;;;;;5089307;28;19920;-76
2023/07/04 04:30:33;;;;;;;;;;;11.90;99.90;;;;;;5089985;28;19961;-76
2023/07/04 04:33:03;;;;;;;;;;;11.90;99.90;;;;;;5090836;28;20284;-76
2023/07/04 04:35:29;;;;;;;;;;;12.00;99.90;;;;;;5089851;28;19970;-76
2023/07/04 04:37:54;;;;;;;;;;;12.10;99.90;;;;;;5089901;28;19927;-77
2023/07/04 04:40:21;;;;;;;;;;;11.90;99.90;;;;;;5076340;28;19969;-78
2023/07/04 04:42:47;;;;;;;;;;;12.10;99.90;;;;;;5093615;28;19927;-77
2023/07/04 04:45:14;;;;;;;;;;;12.20;99.90;;;;;;5077305;28;19916;-77
2023/07/04 04:47:39;;;;;;;;;;;12.30;99.90;;;;;;5077322;28;20006;-78
2023/07/04 04:50:24;;;;;;;;;;;12.20;99.90;;;;;;5093543;28;19927;-75
2023/07/04 04:52:50;;;;;;;;;;;12.20;99.90;;;;;;5094492;28;20025;-77
2023/07/04 04:55:21;;;;;;;;;;;12.20;99.90;;;;;;5094060;28;19923;-78
2023/07/04 04:57:47;;;;;;;;;;;12.20;99.90;;;;;;5094037;28;19916;-77
2023/07/04 05:00:19;;;;;;;;;;;12.40;99.90;;;;;;5093052;28;20300;-76
2023/07/04 05:02:45;;;;;;;;;;;12.50;99.90;;;;;;5093155;28;19974;-76
2023/07/04 05:05:13;;;;;;;;;;;12.40;99.90;;;;;;5110211;27;20397;-77
2023/07/04 05:07:40;;;;;;;;;;;12.50;99.90;;;;;;5093070;28;19920;-78
2023/07/04 05:10:05;;;;;;;;;;;12.50;99.90;;;;;;5076226;28;19920;-77
2023/07/04 05:12:32;;;;;;;;;;;12.70;99.90;;;;;;5076051;28;20713;-76
2023/07/04 05:14:58;;;;;;;;;;;12.70;99.90;;;;;;5094338;28;20078;-77
2023/07/04 05:17:23;;;;;;;;;;;12.70;99.90;;;;;;5075491;28;19970;-76
2023/07/04 05:19:50;;;;;;;;;;;12.80;99.90;;;;;;5075993;28;20405;-76
2023/07/04 05:22:16;;;;;;;;;;;12.80;99.90;;;;;;5109383;28;19962;-77
2023/07/04 05:24:42;;;;;;;;;;;12.90;99.90;;;;;;5092976;28;19920;-76
2023/07/04 05:27:07;;;;;;;;;;;13.00;99.90;;;;;;5075635;28;20130;-77
2023/07/04 05:29:33;;;;;;;;;;;13.00;99.90;;;;;;5092874;28;19920;-78
2023/07/04 05:31:59;;;;;;;;;;;13.10;99.90;;;;;;5076118;28;19916;-78
2023/07/04 05:34:24;;;;;;;;;;;13.10;99.90;;;;;;5092225;28;20404;-77
2023/07/04 05:36:50;;;;;;;;;;;13.10;99.90;;;;;;5092677;28;19920;-76
2023/07/04 05:39:15;;;;;;;;;;;13.10;99.90;;;;;;5092581;28;19927;-79
2023/07/04 05:41:41;;;;;;;;;;;13.10;99.90;;;;;;5092983;28;19927;-76
2023/07/04 05:44:08;;;;;;;;;;;13.20;99.90;;;;;;5092042;28;20448;-78
2023/07/04 05:46:35;;;;;;;;;;;13.30;99.90;;;;;;5091942;28;20006;-76
2023/07/04 05:49:01;;;;;;;;;;;13.40;99.90;;;;;;5075482;28;19931;-76
2023/07/04 05:51:26;;;;;;;;;;;13.50;99.90;;;;;;5091464;28;20389;-75
2023/07/04 05:53:52;;;;;;;;;;;13.50;99.90;;;;;;5092548;28;19923;-77
2023/07/04 05:56:18;;;;;;;;;;;13.60;99.90;;;;;;5091958;28;19920;-77
2023/07/04 05:58:46;;;;;;;;;;;13.60;99.90;;;;;;5092907;28;19968;-77
2023/07/04 06:01:21;;;;;;;;;;;13.70;99.90;;;;;;5093349;28;20280;-78
2023/07/04 06:03:46;;;;;;;;;;;13.60;99.90;;;;;;5092128;28;20432;-76
2023/07/04 06:06:17;;;;;;;;;;;13.60;99.90;;;;;;5074901;28;19944;-76
2023/07/04 06:08:43;;;;;;;;;;;14.00;99.90;;;;;;5075051;28;20360;-79
2023/07/04 06:11:08;;;;;;;;;;;13.90;99.90;;;;;;5093393;28;19916;-76
2023/07/04 06:13:34;;;;;;;;;;;14.10;99.90;;;;;;5075095;28;19919;-76
2023/07/04 06:16:01;;;;;;;;;;;14.20;99.90;;;;;;5058042;28;19923;-77
2023/07/04 06:18:27;;;;;;;;;;;14.50;99.90;;;;;;5092919;28;19919;-76
2023/07/04 06:20:53;;;;;;;;;;;;;;;;;;5092049;28;20364;-77
2023/07/04 06:23:19;;;;;;;;;;;14.50;99.90;;;;;;5108833;28;19927;-77
2023/07/04 06:25:45;;;;;;;;;;;14.50;99.90;;;;;;5092316;28;19935;-77
2023/07/04 06:28:11;;;;;;;;;;;14.60;99.90;;;;;;5091929;28;19920;-77
2023/07/04 06:30:38;;;;;;;;;;;14.70;99.90;;;;;;5092229;28;20331;-77
2023/07/04 06:33:04;;;;;;;;;;;14.80;99.90;;;;;;5092036;28;19920;-76
2023/07/04 06:35:30;;;;;;;;;;;14.70;99.90;;;;;;5091560;28;19916;-76
2023/07/04 06:38:02;;;;;;;;;;;14.90;99.90;;;;;;5092087;28;20006;-76
2023/07/04 06:40:27;;;;;;;;;;;14.80;99.90;;;;;;5074285;28;20333;-78
2023/07/04 06:42:53;;;;;;;;;;;15.20;99.90;;;;;;5091380;28;19920;-79
2023/07/04 06:45:18;;;;;;;;;;;15.30;99.90;;;;;;5092049;28;19920;-78
2023/07/04 06:47:44;;;;;;;;;;;15.10;99.90;;;;;;5091419;28;20286;-78
2023/07/04 06:50:09;;;;;;;;;;;15.10;99.90;;;;;;5091772;28;19920;-77
2023/07/04 06:52:35;;;;;;;;;;;14.80;99.90;;;;;;5091735;28;19965;-77
2023/07/04 06:55:00;;;;;;;;;;;15.10;99.90;;;;;;5091351;28;19923;-78
2023/07/04 06:57:27;;;;;;;;;;;15.20;99.90;;;;;;5090973;28;19924;-77
2023/07/04 06:59:55;;;;;;;;;;;15.30;99.90;;;;;;5092787;28;20053;-76
2023/07/04 07:02:26;;;;;;;;;;;15.30;99.90;;;;;;5090429;28;19920;-78
2023/07/04 07:04:51;;;;;;;;;;;15.40;99.90;;;;;;5092725;28;19926;-78
2023/07/04 07:07:18;;;;;;;;;;;15.40;99.90;;;;;;5091733;28;19919;-78
2023/07/04 07:09:45;;;;;;;;;;;15.60;99.90;;;;;;5074438;28;19970;-75
2023/07/04 07:12:11;;;;;;;;;;;16.10;99.90;;;;;;5074066;28;19927;-77
2023/07/04 07:14:37;;;;;;;;;;;15.90;99.90;;;;;;5091487;28;20383;-80
2023/07/04 07:17:04;;;;;;;;;;;16.20;99.90;;;;;;5091543;28;19916;-78
2023/07/04 07:19:30;;;;;;;;;;;16.40;99.90;;;;;;5090777;28;20427;-79
2023/07/04 07:21:55;;;;;;;;;;;16.60;99.90;;;;;;5074556;28;20069;-78
2023/07/04 07:24:21;;;;;;;;;;;16.70;99.90;;;;;;5074270;28;19919;-78
2023/07/04 07:26:47;;;;;;;;;;;16.90;99.90;;;;;;5125476;27;19931;-80
2023/07/04 07:29:14;;;;;;;;;;;16.80;99.90;;;;;;5091122;28;19920;-80
2023/07/04 07:31:39;;;;;;;;;;;16.80;99.90;;;;;;5074423;28;20430;-78
2023/07/04 07:34:05;;;;;;;;;;;16.90;99.90;;;;;;5091521;28;19919;-78
2023/07/04 07:36:31;;;;;;;;;;;17.10;99.90;;;;;;5090599;28;20287;-76
2023/07/04 07:38:57;;;;;;;;;;;17.10;99.90;;;;;;5091949;28;20351;-76
2023/07/04 07:41:30;;;;;;;;;;;17.10;99.90;;;;;;5090792;28;19962;-77
2023/07/04 07:43:56;;;;;;;;;;;17.10;99.90;;;;;;5090899;28;19924;-80
2023/07/04 07:46:22;;;;;;;;;;;17.00;99.90;;;;;;5090277;28;20015;-77
2023/07/04 07:48:49;;;;;;;;;;;16.80;99.90;;;;;;5090559;28;19963;-77
2023/07/04 07:51:15;;;;;;;;;;;16.70;99.90;;;;;;5073110;28;19924;-77
2023/07/04 07:53:42;;;;;;;;;;;16.70;99.90;;;;;;5090611;28;20011;-77
2023/07/04 07:56:09;;;;;;;;;;;16.70;99.90;;;;;;5090536;28;20277;-80
2023/07/04 07:58:35;;;;;;;;;;;16.70;99.90;;;;;;5090494;28;19920;-80
2023/07/04 08:01:08;;;;;;;;;;;16.70;99.90;;;;;;5090788;28;19970;-77
2023/07/04 08:03:34;;;;;;;;;;;16.70;99.90;;;;;;5090148;28;19920;-78
2023/07/04 08:06:00;;;;;;;;;;;16.80;99.90;;;;;;5125232;27;20001;-77
2023/07/04 08:08:26;;;;;;;;;;;16.80;99.90;;;;;;5090210;28;19971;-78
2023/07/04 08:10:51;;;;;;;;;;;16.90;99.90;;;;;;5074333;28;19977;-79
2023/07/04 08:13:18;;;;;;;;;;;16.90;99.90;;;;;;5073774;28;19994;-76
2023/07/04 08:15:49;;;;;;;;;;;16.90;99.90;;;;;;5090807;28;20014;-79
2023/07/04 08:18:15;;;;;;;;;;;16.90;99.90;;;;;;5124322;28;19927;-77
2023/07/04 08:20:41;;;;;;;;;;;16.90;99.90;;;;;;5057600;28;20026;-81
2023/07/04 08:23:06;;;;;;;;;;;16.90;99.90;;;;;;5090874;28;20376;-77
2023/07/04 08:25:36;;;;;;;;;;;17.00;99.90;;;;;;5073113;28;19930;-77
2023/07/04 08:28:08;;;;;;;;;;;17.20;99.90;;;;;;5091484;28;19923;-78
2023/07/04 08:30:33;;;;;;;;;;;17.20;99.90;;;;;;5089839;28;19920;-78
2023/07/04 08:32:59;;;;;;;;;;;17.30;99.90;;;;;;5073488;28;19916;-79
2023/07/04 08:35:24;;;;;;;;;;;17.30;99.90;;;;;;5072908;28;19920;-79
2023/07/04 08:37:50;;;;;;;;;;;17.30;99.90;;;;;;5090433;28;19959;-77
2023/07/04 08:40:16;;;;;;;;;;;17.30;99.90;;;;;;5073118;28;20320;-78
2023/07/04 08:42:43;;;;;;;;;;;17.40;99.90;;;;;;5124665;28;19934;-77
2023/07/04 08:45:11;;;;;;;;;;;17.40;99.90;;;;;;5090298;28;19923;-79
2023/07/04 08:47:37;;;;;;;;;;;17.40;99.90;;;;;;5073200;28;19927;-77
2023/07/04 08:50:16;;;;;;;;;;;17.40;99.90;;;;;;5089889;28;19977;-78
2023/07/04 08:52:48;;;;;;;;;;;17.50;99.90;;;;;;5073403;28;19924;-77
2023/07/04 08:55:15;;;;;;;;;;;17.60;99.90;;;;;;5073383;28;20388;-77
2023/07/04 08:57:49;;;;;;;;;;;17.60;99.90;;;;;;5089829;28;19916;-77
2023/07/04 09:00:15;;;;;;;;;;;17.60;99.90;;;;;;5089944;28;19923;-80
2023/07/04 09:02:54;;;;;;;;;;;17.70;99.90;;;;;;5089985;28;19923;-77
2023/07/04 09:05:39;;;;;;;;;;;17.90;99.90;;;;;;5089749;28;19927;-78
2023/07/04 09:08:12;;;;;;;;;;;18.30;99.90;;;;;;5073236;28;19969;-79
2023/07/04 09:10:40;;;;;;;;;;;18.60;99.90;;;;;;5090517;28;19967;-76
2023/07/04 09:13:08;;;;;;;;;;;18.70;99.90;;;;;;5089848;28;19922;-77
2023/07/04 09:15:36;;;;;;;;;;;18.90;99.90;;;;;;5091059;28;19962;-78
2023/07/04 09:18:18;;;;;;;;;;;19.00;99.90;;;;;;5091030;28;20349;-77
2023/07/04 09:20:47;;;;;;;;;;;19.10;99.90;;;;;;5089553;28;19920;-77
2023/07/04 09:23:20;;;;;;;;;;;18.70;99.90;;;;;;5089412;28;19963;-79
2023/07/04 09:25:47;;;;;;;;;;;18.10;99.90;;;;;;5126451;27;19996;-78
2023/07/04 09:28:13;;;;;;;;;;;17.50;99.90;;;;;;5094773;28;20014;-80
2023/07/04 09:30:39;;;;;;;;;;;17.20;99.90;;;;;;5127233;27;19923;-75
2023/07/04 09:33:05;;;;;;;;;;;17.10;99.90;;;;;;5076577;28;19919;-79
2023/07/04 09:35:31;;;;;;;;;;;17.10;99.90;;;;;;5076749;28;19931;-80
2023/07/04 09:38:01;;;;;;;;;;;16.80;99.90;;;;;;5093652;28;19947;-77
2023/07/04 09:40:38;;;;;;;;;;;16.60;99.90;;;;;;5077029;28;20278;-81
2023/07/04 09:43:04;;;;;;;;;;;16.60;99.90;;;;;;5093520;28;20018;-79
2023/07/04 09:45:30;;;;;;;;;;;16.60;99.90;;;;;;5076260;28;20002;-81
2023/07/04 09:47:55;;;;;;;;;;;16.70;99.90;;;;;;5093710;28;20375;-78
2023/07/04 09:50:21;;;;;;;;;;;16.90;99.90;;;;;;5075839;28;19924;-78
2023/07/04 09:53:03;;;;;;;;;;;17.00;99.90;;;;;;5093884;28;20273;-80
2023/07/04 09:55:29;;;;;;;;;;;17.10;99.90;;;;;;5092913;28;20381;-78
2023/07/04 09:58:21;;;;;;;;;;;17.30;99.90;;;;;;5094486;28;20019;-79
2023/07/04 10:01:11;;;;;;;;;;;17.20;99.90;;;;;;5089221;28;19970;-76
2023/07/04 10:03:38;;;;;;;;;;;17.20;99.90;;;;;;5092662;28;20380;-79
2023/07/04 10:06:04;;;;;;;;;;;17.10;99.90;;;;;;5092920;28;19972;-80
2023/07/04 10:08:30;;;;;;;;;;;17.20;99.90;;;;;;5092494;28;20368;-78
2023/07/04 10:10:59;;;;;;;;;;;17.40;99.90;;;;;;5093597;28;19916;-77
2023/07/04 10:13:33;;;;;;;;;;;17.80;99.90;;;;;;5092458;28;19970;-79
2023/07/04 10:16:00;;;;;;;;;;;18.10;99.90;;;;;;5092849;28;19923;-77
2023/07/04 10:18:30;;;;;;;;;;;18.10;99.90;;;;;;5075750;28;20036;-77
2023/07/04 10:20:58;;;;;;;;;;;18.10;99.90;;;;;;5092865;28;19920;-79
2023/07/04 10:23:24;;;;;;;;;;;18.30;99.90;;;;;;5092114;28;19920;-76
2023/07/04 10:25:50;;;;;;;;;;;18.50;99.90;;;;;;5092737;28;19920;-78
2023/07/04 10:28:18;;;;;;;;;;;18.70;99.90;;;;;;5075728;28;19924;-80
2023/07/04 10:30:48;;;;;;;;;;;18.90;99.90;;;;;;5091808;28;19923;-75
2023/07/04 10:33:16;;;;;;;;;;;19.10;99.90;;;;;;5075050;28;19923;-78
2023/07/04 10:35:45;;;;;;;;;;;19.30;99.90;;;;;;5091061;28;20002;-77
2023/07/04 10:38:30;;;;;;;;;;;19.70;99.90;;;;;;5092083;28;19924;-81
2023/07/04 10:40:57;;;;;;;;;;;19.90;99.90;;;;;;5075441;28;19916;-76
2023/07/04 10:43:30;;;;;;;;;;;20.20;99.90;;;;;;5091951;28;19969;-80
2023/07/04 10:45:58;;;;;;;;;;;20.20;99.90;;;;;;5092752;28;19924;-79
2023/07/04 10:48:26;;;;;;;;;;;19.80;99.90;;;;;;5091881;28;19973;-76
2023/07/04 10:50:56;;;;;;;;;;;19.60;99.90;;;;;;5091919;28;19924;-77
2023/07/04 10:53:22;;;;;;;;;;;19.60;99.90;;;;;;5075234;28;19993;-77
2023/07/04 10:55:47;;;;;;;;;;;19.70;99.90;;;;;;5091599;28;19920;-78
2023/07/04 10:58:18;;;;;;;;;;;20.00;99.90;;;;;;5092159;28;19923;-78
2023/07/04 11:01:10;;;;;;;;;;;20.30;98.80;;;;;;5092283;28;20842;-81
2023/07/04 11:03:36;;;;;;;;;;;20.40;98.60;;;;;;5088571;28;19919;-79
2023/07/04 11:06:05;;;;;;;;;;;20.20;97.70;;;;;;5091997;28;19920;-81
2023/07/04 11:08:32;;;;;;;;;;;19.90;99.50;;;;;;5091846;28;19956;-78
2023/07/04 11:11:00;;;;;;;;;;;19.90;99.70;;;;;;5092384;28;20369;-78
2023/07/04 11:13:29;;;;;;;;;;;19.90;99.90;;;;;;5092312;28;19920;-81
2023/07/04 11:15:58;;;;;;;;;;;20.10;99.60;;;;;;5091872;28;19984;-79
2023/07/04 11:18:27;;;;;;;;;;;20.20;99.30;;;;;;5091295;28;19927;-80
2023/07/04 11:21:10;;;;;;;;;;;20.30;99.60;;;;;;5124242;27;20342;-77
2023/07/04 11:24:02;;;;;;;;;;;20.50;98.10;;;;;;5092427;28;19927;-82
2023/07/04 11:26:53;;;;;;;;;;;20.60;97.60;;;;;;5088468;28;20345;-80
2023/07/04 11:29:20;;;;;;;;;;;20.70;98.00;;;;;;5066792;28;19969;-77
2023/07/04 11:32:04;;;;;;;;;;;20.90;96.00;;;;;;5090850;28;19920;-81
2023/07/04 11:34:48;;;;;;;;;;;21.00;96.60;;;;;;5074057;28;19920;-80
2023/07/04 11:37:21;;;;;;;;;;;21.20;97.70;;;;;;5091684;28;20288;-76
2023/07/04 11:39:49;;;;;;;;;;;21.50;94.90;;;;;;5090820;28;20428;-78
2023/07/04 11:42:16;;;;;;;;;;;21.30;94.30;;;;;;5090771;28;19931;-80
2023/07/04 11:45:02;;;;;;;;;;;21.20;93.10;;;;;;5124979;27;19920;-78
2023/07/04 11:47:33;;;;;;;;;;;21.00;92.70;;;;;;5089871;28;19916;-76
2023/07/04 11:50:01;;;;;;;;;;;20.80;92.90;;;;;;5091367;28;20268;-77
2023/07/04 11:52:31;;;;;;;;;;;20.60;93.20;;;;;;5091566;28;19941;-78
2023/07/04 11:54:58;;;;;;;;;;;20.60;94.10;;;;;;5091960;28;19961;-79
2023/07/04 11:57:44;;;;;;;;;;;20.60;95.40;;;;;;5090700;28;20006;-82
2023/07/04 12:00:22;;;;;;;;;;;20.60;93.20;;;;;;5090425;28;20414;-78
2023/07/04 12:02:48;;;;;;;;;;;20.30;94.20;;;;;;5090254;28;20038;-78
2023/07/04 12:05:32;;;;;;;;;;;20.10;94.70;;;;;;5107920;28;19985;-78
2023/07/04 12:08:04;;;;;;;;;;;20.00;95.50;;;;;;5090223;28;20372;-77
2023/07/04 12:10:30;;;;;;;;;;;20.30;95.50;;;;;;5091348;28;19939;-79
2023/07/04 12:12:58;;;;;;;;;;;20.50;94.80;;;;;;5074178;28;20372;-79
2023/07/04 12:15:30;;;;;;;;;;;20.50;94.70;;;;;;5090487;28;19924;-78
2023/07/04 12:17:58;;;;;;;;;;;20.20;94.00;;;;;;5090364;28;19920;-80
2023/07/04 12:20:26;;;;;;;;;;;20.20;94.20;;;;;;5092320;28;20434;-81
2023/07/04 12:22:53;;;;;;;;;;;20.20;94.50;;;;;;5090184;28;19924;-78
2023/07/04 12:25:26;;;;;;;;;;;20.30;93.70;;;;;;5091140;28;20396;-79
2023/07/04 12:27:58;;;;;;;;;;;20.20;92.90;;;;;;5090472;28;19967;-77
2023/07/04 12:30:24;;;;;;;;;;;20.20;93.50;;;;;;5090582;28;20284;-81
2023/07/04 12:32:53;;;;;;;;;;;20.40;93.00;;;;;;5090104;28;20112;-79
2023/07/04 12:35:20;;;;;;;;;;;20.60;93.00;;;;;;5073655;28;20650;-80
2023/07/04 12:37:47;;;;;;;;;;;20.80;92.80;;;;;;5091282;28;19916;-80
2023/07/04 12:40:15;;;;;;;;;;;21.10;93.10;;;;;;5090371;28;19923;-77
2023/07/04 12:42:43;;;;;;;;;;;21.30;91.20;;;;;;5090242;28;20024;-80
2023/07/04 12:45:09;;;;;;;;;;;21.30;91.40;;;;;;5091194;28;20524;-79
2023/07/04 12:47:38;;;;;;;;;;;21.30;90.60;;;;;;5107869;28;19920;-80
2023/07/04 12:50:05;;;;;;;;;;;21.40;90.70;;;;;;5090349;28;19943;-81
2023/07/04 12:52:36;;;;;;;;;;;21.40;91.00;;;;;;5092431;28;20420;-78
2023/07/04 12:55:05;;;;;;;;;;;21.40;91.00;;;;;;5091787;28;19920;-78
2023/07/04 12:57:31;;;;;;;;;;;21.30;91.80;;;;;;5090335;28;19920;-81
2023/07/04 13:00:07;;;;;;;;;;;21.40;91.50;;;;;;5074836;28;19916;-80
2023/07/04 13:02:34;;;;;;;;;;;21.40;92.70;;;;;;5076732;28;19926;-79
2023/07/04 13:05:02;;;;;;;;;;;21.50;92.30;;;;;;5095707;28;19920;-77
2023/07/04 13:07:28;;;;;;;;;;;21.70;91.60;;;;;;5094271;28;19916;-79
2023/07/04 13:09:55;;;;;;;;;;;21.90;92.00;;;;;;5093629;28;19923;-81
2023/07/04 13:12:25;;;;;;;;;;;22.10;93.30;;;;;;5094079;28;19920;-80
2023/07/04 13:15:02;;;;;;;;;;;22.30;91.20;;;;;;5093697;28;19963;-77
2023/07/04 13:17:28;;;;;;;;;;;22.40;91.70;;;;;;5093912;28;19941;-79
2023/07/04 13:20:09;;;;;;;;;;;22.60;91.40;;;;;;5093376;28;19916;-79
2023/07/04 13:22:34;;;;;;;;;;;23.00;92.50;;;;;;5094755;28;19920;-79
2023/07/04 13:25:16;;;;;;;;;;;23.20;90.90;;;;;;5093383;28;19930;-80
2023/07/04 13:27:42;;;;;;;;;;;22.70;88.40;;;;;;5093013;28;19916;-79
2023/07/04 13:30:08;;;;;;;;;;;22.40;89.50;;;;;;5094945;28;19981;-78
2023/07/04 13:32:35;;;;;;;;;;;22.40;90.70;;;;;;5094263;28;19916;-77
2023/07/04 13:35:19;;;;;;;;;;;22.50;89.50;;;;;;5093162;28;19959;-80
2023/07/04 13:37:45;;;;;;;;;;;22.60;90.20;;;;;;5093628;28;20041;-77
2023/07/04 13:40:10;;;;;;;;;;;22.70;90.10;;;;;;5094639;28;20013;-78
2023/07/04 13:42:36;;;;;;;;;;;22.80;88.60;;;;;;5093518;28;19943;-80
2023/07/04 13:45:02;;;;;;;;;;;22.90;91.80;;;;;;5093336;28;19920;-79
2023/07/04 13:47:27;;;;;;;;;;;22.90;88.50;;;;;;5093427;28;19923;-78
2023/07/04 13:49:53;;;;;;;;;;;22.50;86.40;;;;;;5076313;28;20303;-78
2023/07/04 13:52:19;;;;;;;;;;;22.30;87.40;;;;;;5092993;28;19927;-80
2023/07/04 13:54:45;;;;;;;;;;;22.20;87.30;;;;;;5092588;28;19916;-77
2023/07/04 13:57:10;;;;;;;;;;;22.00;89.00;;;;;;5093115;28;20018;-79
2023/07/04 13:59:36;;;;;;;;;;;22.10;88.40;;;;;;5092994;28;19920;-75
2023/07/04 14:02:01;;;;;;;;;;;22.10;87.00;;;;;;5093813;28;19963;-82
2023/07/04 14:04:27;;;;;;;;;;;22.30;89.20;;;;;;5075954;28;19916;-80
2023/07/04 14:06:53;;;;;;;;;;;22.60;87.90;;;;;;5075719;28;19932;-78
2023/07/04 14:09:19;;;;;;;;;;;22.90;88.80;;;;;;5092921;28;19916;-79
2023/07/04 14:11:45;;;;;;;;;;;23.10;86.20;;;;;;5093477;28;19922;-77
2023/07/04 14:14:10;;;;;;;;;;;23.20;87.00;;;;;;5093057;28;20030;-78
2023/07/04 14:16:36;;;;;;;;;;;23.40;84.00;;;;;;5092663;28;19972;-80
2023/07/04 14:19:02;;;;;;;;;;;23.50;85.10;;;;;;5092635;28;19959;-78
2023/07/04 14:21:28;;;;;;;;;;;23.50;83.70;;;;;;5091990;28;19927;-79
2023/07/04 14:23:54;;;;;;;;;;;23.40;84.00;;;;;;5091848;28;20276;-78